Time;durP1;ratioP1;P1;durP2;ratioP2;P2;SDS_P1;SDS_P2;PMS_P1;PMS_P2;Temp;Humidity;BMP_temperature;BMP_pressure;BME280_temperature;BME280_humidity;BME280_pressure;Samples;Min_cycle;Max_cycle;Signal;HPM_P1;HPM_P2
2023/01/30 00:01:32;;;;;;;;;;;3.70;99.90;;;;;;5067963;28;19912;-59
2023/01/30 00:03:58;;;;;;;;;;;3.80;99.90;;;;;;5065729;28;19921;-61
2023/01/30 00:06:23;;;;;;;;;;;3.80;99.90;;;;;;5070240;28;19912;-61
2023/01/30 00:08:49;;;;;;;;;;;3.90;99.90;;;;;;5070028;28;19912;-61
2023/01/30 00:11:15;;;;;;;;;;;4.10;99.90;;;;;;5069223;28;19966;-61
2023/01/30 00:13:41;;;;;;;;;;;4.40;99.90;;;;;;5069977;28;19922;-61
2023/01/30 00:16:08;;;;;;;;;;;4.40;99.90;;;;;;5064036;28;19913;-60
2023/01/30 00:18:34;;;;;;;;;;;4.60;99.90;;;;;;5075129;28;19943;-61
2023/01/30 00:21:00;;;;;;;;;;;4.70;99.90;;;;;;5074620;28;19916;-62
2023/01/30 00:23:27;;;;;;;;;;;4.80;99.90;;;;;;5069712;28;19979;-60
2023/01/30 00:25:52;;;;;;;;;;;4.80;99.90;;;;;;5068687;28;19916;-65
2023/01/30 00:28:18;;;;;;;;;;;4.90;99.90;;;;;;5072052;28;19941;-61
2023/01/30 00:30:43;;;;;;;;;;;5.00;99.90;;;;;;5047477;28;19917;-62
2023/01/30 00:33:09;;;;;;;;;;;5.00;99.90;;;;;;5070216;28;19913;-61
2023/01/30 00:35:35;;;;;;;;;;;5.00;99.90;;;;;;5067035;28;20003;-61
2023/01/30 00:38:00;;;;;;;;;;;5.10;99.90;;;;;;5074835;28;19913;-61
2023/01/30 00:40:26;;;;;;;;;;;5.10;99.90;;;;;;5063578;28;19919;-61
2023/01/30 00:48:21;;;;;;;;;;;5.10;99.90;;;;;;5069639;28;19935;-61
2023/01/30 00:50:47;;;;;;;;;;;5.20;99.90;;;;;;5066863;28;19916;-61
2023/01/30 00:53:14;;;;;;;;;;;5.20;99.90;;;;;;5073853;28;19923;-60
2023/01/30 00:55:40;;;;;;;;;;;5.30;99.90;;;;;;5074349;28;19919;-61
2023/01/30 00:58:05;;;;;;;;;;;5.30;99.90;;;;;;5068187;28;19920;-61
2023/01/30 01:00:31;;;;;;;;;;;5.30;99.90;;;;;;5070202;28;19966;-62
2023/01/30 01:02:57;;;;;;;;;;;5.30;99.90;;;;;;5070845;28;19923;-62
2023/01/30 01:05:22;;;;;;;;;;;5.30;99.90;;;;;;5069292;28;19920;-61
2023/01/30 01:07:47;;;;;;;;;;;5.40;99.90;;;;;;5070335;28;19922;-61
2023/01/30 01:10:15;;;;;;;;;;;5.40;99.90;;;;;;5069096;28;20026;-61
2023/01/30 01:12:44;;;;;;;;;;;5.40;99.90;;;;;;5071388;28;19919;-61
2023/01/30 01:15:12;;;;;;;;;;;5.30;99.90;;;;;;5065957;28;19945;-61
2023/01/30 01:17:38;;;;;;;;;;;5.40;99.90;;;;;;5069334;28;20001;-61
2023/01/30 01:20:04;;;;;;;;;;;5.40;99.90;;;;;;5071299;28;19920;-61
2023/01/30 01:22:30;;;;;;;;;;;5.40;99.90;;;;;;5073109;28;20003;-60
2023/01/30 01:24:55;;;;;;;;;;;5.40;99.90;;;;;;5071479;28;20012;-61
2023/01/30 01:27:21;;;;;;;;;;;5.40;99.90;;;;;;5075133;28;20415;-61
2023/01/30 01:29:46;;;;;;;;;;;5.40;99.90;;;;;;5071559;28;19917;-62
2023/01/30 01:32:11;;;;;;;;;;;5.40;99.90;;;;;;5068658;28;20162;-60
2023/01/30 01:34:37;;;;;;;;;;;5.40;99.90;;;;;;5072825;28;19919;-60
2023/01/30 01:37:02;;;;;;;;;;;5.40;99.90;;;;;;5066773;28;19978;-60
2023/01/30 01:41:00;;;;;;;;;;;5.40;99.90;;;;;;5071759;28;19923;-59
2023/01/30 01:42:13;;;;;;;;;;;5.50;99.90;;;;;;5068926;28;19912;-59
2023/01/30 01:44:59;;;;;;;;;;;5.50;99.90;;;;;;5070102;28;19919;-59
2023/01/30 01:47:24;;;;;;;;;;;5.50;99.90;;;;;;5073742;28;19912;-60
2023/01/30 01:49:50;;;;;;;;;;;5.50;99.90;;;;;;5071829;28;20440;-60
2023/01/30 01:52:16;;;;;;;;;;;5.50;99.90;;;;;;5068438;28;19913;-60
2023/01/30 01:54:41;;;;;;;;;;;5.50;99.90;;;;;;5071623;28;20681;-60
2023/01/30 01:57:11;;;;;;;;;;;5.50;99.90;;;;;;5072262;28;19913;-62
2023/01/30 01:59:38;;;;;;;;;;;5.50;99.90;;;;;;5068947;28;19920;-61
2023/01/30 02:02:06;;;;;;;;;;;5.50;99.90;;;;;;5071982;28;20012;-59
2023/01/30 02:07:19;;;;;;;;;;;5.50;99.90;;;;;;5074002;28;19920;-58
2023/01/30 02:09:44;;;;;;;;;;;5.50;99.90;;;;;;5067640;28;19970;-57
2023/01/30 02:12:11;;;;;;;;;;;5.50;99.90;;;;;;5070056;28;19912;-59
2023/01/30 02:14:37;;;;;;;;;;;5.50;99.90;;;;;;5073911;28;19919;-58
2023/01/30 02:17:02;;;;;;;;;;;5.50;99.90;;;;;;5070260;28;19916;-57
2023/01/30 02:19:47;;;;;;;;;;;5.50;99.90;;;;;;5066140;28;19983;-60
2023/01/30 02:22:30;;;;;;;;;;;5.40;99.90;;;;;;5065583;28;19974;-60
2023/01/30 02:25:06;;;;;;;;;;;5.50;99.90;;;;;;5071846;28;19947;-60
2023/01/30 02:27:50;;;;;;;;;;;5.40;99.90;;;;;;5065833;28;19966;-60
2023/01/30 02:30:34;;;;;;;;;;;5.40;99.90;;;;;;5065258;28;19917;-60
2023/01/30 02:33:09;;;;;;;;;;;5.40;99.90;;;;;;5069648;28;20003;-61
2023/01/30 02:35:54;;;;;;;;;;;5.40;99.90;;;;;;5069370;28;20329;-61
2023/01/30 02:38:38;;;;;;;;;;;5.40;99.90;;;;;;5074856;28;20019;-59
2023/01/30 02:41:09;;;;;;;;;;;5.50;99.90;;;;;;5066446;28;19978;-60
2023/01/30 02:43:38;;;;;;;;;;;5.50;99.90;;;;;;5063370;28;19932;-60
2023/01/30 02:46:13;;;;;;;;;;;5.50;99.90;;;;;;5075026;28;19912;-60
2023/01/30 02:48:40;;;;;;;;;;;5.50;99.90;;;;;;5082054;28;19969;-60
2023/01/30 02:51:10;;;;;;;;;;;5.50;99.90;;;;;;5083096;22;19939;-64
2023/01/30 02:53:36;;;;;;;;;;;5.50;99.90;;;;;;5052781;28;19927;-62
2023/01/30 02:56:02;;;;;;;;;;;5.50;99.90;;;;;;5050401;28;20391;-61
2023/01/30 02:58:29;;;;;;;;;;;5.50;99.90;;;;;;5051020;28;19913;-64
2023/01/30 03:01:10;;;;;;;;;;;5.40;99.90;;;;;;5049333;28;19959;-64
2023/01/30 03:04:00;;;;;;;;;;;5.40;99.90;;;;;;5050906;28;19921;-64
2023/01/30 03:06:48;;;;;;;;;;;5.40;99.90;;;;;;5050713;28;19913;-64
2023/01/30 03:09:14;;;;;;;;;;;5.40;99.90;;;;;;5050284;28;19928;-64
2023/01/30 03:11:44;;;;;;;;;;;5.40;99.90;;;;;;5048797;28;19973;-64
2023/01/30 03:14:25;;;;;;;;;;;5.40;99.90;;;;;;5050798;28;19938;-63
2023/01/30 03:16:51;;;;;;;;;;;5.40;99.90;;;;;;5049579;28;19916;-63
2023/01/30 03:19:17;;;;;;;;;;;5.40;99.90;;;;;;5048880;28;20278;-61
2023/01/30 03:21:43;;;;;;;;;;;5.40;99.90;;;;;;5050539;28;19913;-63
2023/01/30 03:24:09;;;;;;;;;;;5.40;99.90;;;;;;5057101;28;19932;-62
2023/01/30 03:26:39;;;;;;;;;;;5.50;99.90;;;;;;5051963;28;19913;-63
2023/01/30 03:29:04;;;;;;;;;;;5.50;99.90;;;;;;5063209;28;20375;-62
2023/01/30 03:31:30;;;;;;;;;;;5.50;99.90;;;;;;5049627;28;19909;-63
2023/01/30 03:33:55;;;;;;;;;;;5.50;99.90;;;;;;5050769;28;19917;-61
2023/01/30 03:36:21;;;;;;;;;;;5.60;99.90;;;;;;5052701;28;19964;-63
2023/01/30 03:38:46;;;;;;;;;;;5.60;99.90;;;;;;5047255;28;19917;-63
2023/01/30 03:41:11;;;;;;;;;;;5.60;99.90;;;;;;5054018;28;20011;-60
2023/01/30 03:43:37;;;;;;;;;;;5.70;99.90;;;;;;5051180;28;20345;-61
2023/01/30 03:46:02;;;;;;;;;;;5.70;99.90;;;;;;5051807;28;19952;-63
2023/01/30 03:48:28;;;;;;;;;;;5.70;99.90;;;;;;5049207;28;19924;-64
2023/01/30 03:50:53;;;;;;;;;;;5.70;99.90;;;;;;5053246;28;19920;-63
2023/01/30 03:53:19;;;;;;;;;;;5.70;99.90;;;;;;5070230;28;19924;-61
2023/01/30 03:55:44;;;;;;;;;;;5.70;99.90;;;;;;5069289;28;19912;-63
2023/01/30 03:58:10;;;;;;;;;;;5.70;99.90;;;;;;5069603;28;19920;-63
2023/01/30 04:00:35;;;;;;;;;;;5.80;99.90;;;;;;5063802;28;20030;-64
2023/01/30 04:03:01;;;;;;;;;;;5.80;99.90;;;;;;5076789;28;19912;-63
2023/01/30 04:05:27;;;;;;;;;;;;;;;;;;5076357;28;19913;-63
2023/01/30 04:07:55;;;;;;;;;;;5.80;99.90;;;;;;5067151;28;20371;-63
2023/01/30 04:10:20;;;;;;;;;;;5.90;99.90;;;;;;5072957;28;19999;-63
2023/01/30 04:12:46;;;;;;;;;;;5.90;99.90;;;;;;5064986;28;20014;-63
2023/01/30 04:15:12;;;;;;;;;;;5.90;99.90;;;;;;5068318;28;19924;-61
2023/01/30 04:17:37;;;;;;;;;;;5.90;99.90;;;;;;5050896;28;19920;-63
2023/01/30 04:20:03;;;;;;;;;;;6.00;99.90;;;;;;5076896;28;19917;-63
2023/01/30 04:22:29;;;;;;;;;;;6.00;99.90;;;;;;5070034;28;20410;-63
2023/01/30 04:24:54;;;;;;;;;;;6.00;99.90;;;;;;5070187;28;19966;-62
2023/01/30 04:27:19;;;;;;;;;;;6.00;99.90;;;;;;5068433;28;19913;-63
2023/01/30 04:29:45;;;;;;;;;;;6.00;99.90;;;;;;5078443;28;20337;-62
2023/01/30 04:32:10;;;;;;;;;;;6.10;99.90;;;;;;5069226;28;19943;-64
2023/01/30 04:34:36;;;;;;;;;;;6.10;99.90;;;;;;5071466;28;19921;-61
2023/01/30 04:37:01;;;;;;;;;;;6.20;99.90;;;;;;5069007;28;19935;-63
2023/01/30 04:39:27;;;;;;;;;;;6.20;99.90;;;;;;5053514;28;19920;-62
2023/01/30 04:41:52;;;;;;;;;;;6.20;99.90;;;;;;5068342;28;20018;-63
2023/01/30 04:44:18;;;;;;;;;;;6.20;99.90;;;;;;5068810;28;19923;-63
2023/01/30 04:46:43;;;;;;;;;;;6.20;99.90;;;;;;5073833;28;20410;-63
2023/01/30 04:49:09;;;;;;;;;;;6.20;99.90;;;;;;5073570;28;20066;-63
2023/01/30 04:51:34;;;;;;;;;;;6.20;99.90;;;;;;5073598;28;19951;-63
2023/01/30 04:54:00;;;;;;;;;;;6.20;99.90;;;;;;5067394;28;19913;-64
2023/01/30 04:56:25;;;;;;;;;;;6.20;99.90;;;;;;5069674;28;19920;-63
2023/01/30 04:58:51;;;;;;;;;;;6.20;99.90;;;;;;5068901;28;19920;-62
2023/01/30 05:01:21;;;;;;;;;;;6.20;99.90;;;;;;5065985;28;19912;-63
2023/01/30 05:03:50;;;;;;;;;;;6.20;99.90;;;;;;5073875;28;19924;-63
2023/01/30 05:06:16;;;;;;;;;;;6.20;99.90;;;;;;5066025;28;20042;-63
2023/01/30 05:08:41;;;;;;;;;;;6.10;99.90;;;;;;5070029;28;19991;-63
2023/01/30 05:11:07;;;;;;;;;;;6.20;99.90;;;;;;5072979;28;19923;-62
2023/01/30 05:13:32;;;;;;;;;;;6.10;99.90;;;;;;5064318;28;19931;-63
2023/01/30 05:15:57;;;;;;;;;;;6.10;99.90;;;;;;5067282;28;19912;-64
2023/01/30 05:18:23;;;;;;;;;;;6.10;99.90;;;;;;5071623;28;19943;-63
2023/01/30 05:20:49;;;;;;;;;;;6.10;99.90;;;;;;5066535;28;19916;-63
2023/01/30 05:23:14;;;;;;;;;;;6.00;99.90;;;;;;5066090;28;19920;-62
2023/01/30 05:25:39;;;;;;;;;;;6.00;99.90;;;;;;5067877;28;19913;-63
2023/01/30 05:28:05;;;;;;;;;;;6.00;99.90;;;;;;5071077;28;19912;-63
2023/01/30 05:30:30;;;;;;;;;;;5.90;99.90;;;;;;5066385;28;20393;-63
2023/01/30 05:32:57;;;;;;;;;;;5.90;99.90;;;;;;5068120;28;19913;-63
2023/01/30 05:35:22;;;;;;;;;;;5.90;99.90;;;;;;5072759;28;20350;-62
2023/01/30 05:37:51;;;;;;;;;;;5.90;99.90;;;;;;5070373;28;19962;-63
2023/01/30 05:40:17;;;;;;;;;;;5.80;99.90;;;;;;5068354;28;19974;-62
2023/01/30 05:42:42;;;;;;;;;;;5.80;99.90;;;;;;5070342;28;20272;-63
2023/01/30 05:45:08;;;;;;;;;;;5.80;99.90;;;;;;5070850;28;19920;-63
2023/01/30 05:47:33;;;;;;;;;;;5.80;99.90;;;;;;5064048;28;19920;-62
2023/01/30 05:49:59;;;;;;;;;;;5.80;99.90;;;;;;5062463;28;19927;-61
2023/01/30 05:52:24;;;;;;;;;;;5.80;99.90;;;;;;5006965;28;1733872;-63
2023/01/30 05:54:49;;;;;;;;;;;5.70;99.90;;;;;;5071489;28;19915;-63
2023/01/30 05:57:15;;;;;;;;;;;5.70;99.90;;;;;;5069671;28;19951;-62
2023/01/30 05:59:40;;;;;;;;;;;5.70;99.90;;;;;;5064741;28;19921;-63
2023/01/30 06:02:06;;;;;;;;;;;5.70;99.90;;;;;;5060218;28;19913;-62
2023/01/30 06:04:31;;;;;;;;;;;5.80;99.90;;;;;;5063813;28;20426;-62
2023/01/30 06:06:57;;;;;;;;;;;5.70;99.90;;;;;;5070224;28;20411;-63
2023/01/30 06:09:22;;;;;;;;;;;5.80;99.90;;;;;;5067176;28;19962;-63
2023/01/30 06:11:47;;;;;;;;;;;5.70;99.90;;;;;;5067459;28;19916;-63
2023/01/30 06:14:13;;;;;;;;;;;5.80;99.90;;;;;;5068364;28;19912;-61
2023/01/30 06:16:38;;;;;;;;;;;5.80;99.90;;;;;;5067415;28;19916;-64
2023/01/30 06:19:04;;;;;;;;;;;5.80;99.90;;;;;;5073358;28;20305;-63
2023/01/30 06:21:29;;;;;;;;;;;5.80;99.90;;;;;;5050227;28;19921;-63
2023/01/30 06:23:55;;;;;;;;;;;5.80;99.90;;;;;;5071662;28;20408;-62
2023/01/30 06:26:20;;;;;;;;;;;5.90;99.90;;;;;;5068979;28;19916;-62
2023/01/30 06:28:47;;;;;;;;;;;5.90;99.90;;;;;;5075923;28;19913;-63
2023/01/30 06:31:12;;;;;;;;;;;5.90;99.90;;;;;;5074912;28;19916;-63
2023/01/30 06:33:38;;;;;;;;;;;5.90;99.90;;;;;;5064884;28;19969;-63
2023/01/30 06:36:03;;;;;;;;;;;5.90;99.90;;;;;;5061638;28;19913;-63
2023/01/30 06:38:29;;;;;;;;;;;6.00;99.90;;;;;;5079388;28;19912;-64
2023/01/30 06:40:54;;;;;;;;;;;5.90;99.90;;;;;;5081923;28;20370;-63
2023/01/30 06:43:20;;;;;;;;;;;5.90;99.90;;;;;;5073353;28;19931;-64
2023/01/30 06:45:45;;;;;;;;;;;5.90;99.90;;;;;;5074029;28;19931;-61
2023/01/30 06:48:11;;;;;;;;;;;5.90;99.90;;;;;;5073233;28;19923;-64
2023/01/30 06:50:36;;;;;;;;;;;5.90;99.90;;;;;;5073202;28;19920;-62
2023/01/30 06:53:03;;;;;;;;;;;5.90;99.90;;;;;;5074641;28;19913;-63
2023/01/30 06:55:29;;;;;;;;;;;5.90;99.90;;;;;;5073804;28;19908;-65
2023/01/30 06:58:02;;;;;;;;;;;5.90;99.90;;;;;;5072879;28;19916;-64
2023/01/30 07:00:28;;;;;;;;;;;5.90;99.90;;;;;;5074140;28;19908;-63
2023/01/30 07:02:53;;;;;;;;;;;5.90;99.90;;;;;;5074296;28;19973;-64
2023/01/30 07:05:18;;;;;;;;;;;5.90;99.90;;;;;;5073883;28;19909;-64
2023/01/30 07:07:44;;;;;;;;;;;5.90;99.90;;;;;;5072955;28;20007;-63
2023/01/30 07:10:10;;;;;;;;;;;5.90;99.90;;;;;;5074022;28;19912;-64
2023/01/30 07:12:36;;;;;;;;;;;5.90;99.90;;;;;;5065858;28;19913;-63
2023/01/30 07:15:02;;;;;;;;;;;5.90;99.90;;;;;;5073626;28;19913;-64
2023/01/30 07:17:27;;;;;;;;;;;6.00;99.90;;;;;;5072918;28;19936;-64
2023/01/30 07:19:53;;;;;;;;;;;6.00;99.90;;;;;;5072733;28;19913;-62
2023/01/30 07:22:18;;;;;;;;;;;6.00;99.90;;;;;;5073955;28;19908;-63
2023/01/30 07:24:44;;;;;;;;;;;5.90;99.90;;;;;;5073530;28;19913;-63
2023/01/30 07:27:10;;;;;;;;;;;5.90;99.90;;;;;;5071272;28;19908;-64
2023/01/30 07:29:36;;;;;;;;;;;5.90;99.90;;;;;;5071583;28;20447;-65
2023/01/30 07:32:01;;;;;;;;;;;5.90;99.90;;;;;;5073446;28;19913;-63
2023/01/30 07:34:27;;;;;;;;;;;5.90;99.90;;;;;;5073638;28;19962;-65
2023/01/30 07:36:52;;;;;;;;;;;5.90;99.90;;;;;;5069691;28;19915;-63
2023/01/30 07:39:18;;;;;;;;;;;5.90;99.90;;;;;;5056260;28;19916;-65
2023/01/30 07:41:43;;;;;;;;;;;6.00;99.90;;;;;;5054232;28;20420;-63
2023/01/30 07:44:09;;;;;;;;;;;6.00;99.90;;;;;;5073836;28;19920;-65
2023/01/30 07:46:34;;;;;;;;;;;6.00;99.90;;;;;;5072457;28;19913;-64
2023/01/30 07:49:00;;;;;;;;;;;6.00;99.90;;;;;;5073433;28;19919;-64
2023/01/30 07:51:26;;;;;;;;;;;6.00;99.90;;;;;;5073270;28;19916;-65
2023/01/30 07:53:51;;;;;;;;;;;6.10;99.90;;;;;;5072590;28;20015;-64
2023/01/30 07:56:18;;;;;;;;;;;6.10;99.90;;;;;;5071589;28;20298;-62
2023/01/30 07:58:44;;;;;;;;;;;6.20;99.90;;;;;;5072035;28;20367;-63
2023/01/30 08:01:09;;;;;;;;;;;6.20;99.90;;;;;;5072558;28;19909;-63
2023/01/30 08:03:35;;;;;;;;;;;6.20;99.90;;;;;;5072870;28;19909;-62
2023/01/30 08:06:00;;;;;;;;;;;6.30;99.90;;;;;;5071686;28;20267;-64
2023/01/30 08:08:26;;;;;;;;;;;6.40;99.90;;;;;;5071745;28;19943;-63
2023/01/30 08:10:51;;;;;;;;;;;6.40;99.90;;;;;;5072690;28;19919;-63
2023/01/30 08:13:17;;;;;;;;;;;6.50;99.90;;;;;;5071154;28;20433;-63
2023/01/30 08:15:42;;;;;;;;;;;6.50;99.90;;;;;;5069162;28;19924;-63
2023/01/30 08:18:08;;;;;;;;;;;6.60;99.90;;;;;;5071537;28;19919;-63
2023/01/30 08:20:33;;;;;;;;;;;6.60;99.90;;;;;;5072704;28;20002;-64
2023/01/30 08:23:00;;;;;;;;;;;6.60;99.90;;;;;;5072553;28;19909;-63
2023/01/30 08:25:26;;;;;;;;;;;6.60;99.90;;;;;;5071902;28;19915;-63
2023/01/30 08:27:51;;;;;;;;;;;6.70;99.90;;;;;;5070249;28;19916;-64
2023/01/30 08:30:17;;;;;;;;;;;6.70;99.90;;;;;;5071969;28;19924;-63
2023/01/30 08:32:42;;;;;;;;;;;6.80;99.90;;;;;;5072510;28;20264;-64
2023/01/30 08:35:08;;;;;;;;;;;6.80;99.90;;;;;;5071977;28;19916;-62
2023/01/30 08:37:33;;;;;;;;;;;6.80;99.90;;;;;;5071299;28;20028;-63
2023/01/30 08:39:59;;;;;;;;;;;6.90;99.90;;;;;;5071768;28;20448;-63
2023/01/30 08:42:24;;;;;;;;;;;6.90;99.90;;;;;;5069802;28;20297;-63
2023/01/30 08:44:50;;;;;;;;;;;6.90;99.90;;;;;;5071812;28;20298;-63
2023/01/30 08:47:15;;;;;;;;;;;6.90;99.90;;;;;;5053009;28;19962;-63
2023/01/30 08:49:41;;;;;;;;;;;7.00;99.90;;;;;;5071976;28;19919;-61
2023/01/30 08:52:06;;;;;;;;;;;7.00;99.90;;;;;;5087179;23;20385;-83
2023/01/30 08:54:32;;;;;;;;;;;7.00;99.90;;;;;;5082263;28;20421;-84
2023/01/30 08:56:57;;;;;;;;;;;7.10;99.90;;;;;;5081728;28;20004;-81
2023/01/30 08:59:23;;;;;;;;;;;7.10;99.90;;;;;;5100510;28;19966;-80
2023/01/30 09:01:48;;;;;;;;;;;7.10;99.90;;;;;;5081157;28;20299;-83
2023/01/30 09:04:14;;;;;;;;;;;7.10;99.90;;;;;;5099539;28;19965;-83
2023/01/30 09:06:40;;;;;;;;;;;7.10;99.90;;;;;;5099686;28;19944;-85
2023/01/30 09:09:05;;;;;;;;;;;7.10;99.90;;;;;;5082015;28;19976;-83
2023/01/30 09:11:31;;;;;;;;;;;7.10;99.90;;;;;;5099545;28;20385;-84
2023/01/30 09:13:56;;;;;;;;;;;7.20;99.90;;;;;;5099874;28;19908;-80
2023/01/30 09:16:22;;;;;;;;;;;7.30;99.90;;;;;;5082885;28;19908;-83
2023/01/30 09:18:47;;;;;;;;;;;7.30;99.90;;;;;;5084886;28;19930;-82
2023/01/30 09:21:13;;;;;;;;;;;7.40;99.90;;;;;;5082211;28;19999;-82
2023/01/30 09:23:38;;;;;;;;;;;7.40;99.90;;;;;;5083941;28;19912;-83
2023/01/30 09:26:04;;;;;;;;;;;7.40;99.90;;;;;;5083834;28;19909;-84
2023/01/30 09:28:30;;;;;;;;;;;7.50;99.90;;;;;;5082736;28;19966;-83
2023/01/30 09:30:56;;;;;;;;;;;7.60;99.90;;;;;;5101476;28;19920;-82
2023/01/30 09:33:22;;;;;;;;;;;7.60;99.90;;;;;;5102839;28;19908;-80
2023/01/30 09:35:48;;;;;;;;;;;7.70;99.90;;;;;;5083547;28;19919;-84
2023/01/30 09:38:13;;;;;;;;;;;7.80;99.90;;;;;;5083714;28;19908;-81
2023/01/30 09:40:45;;;;;;;;;;;7.90;99.90;;;;;;5101116;28;19908;-84
2023/01/30 09:43:21;;;;;;;;;;;7.80;99.90;;;;;;5100990;28;20380;-83
2023/01/30 09:46:05;;;;;;;;;;;7.90;99.90;;;;;;5081643;28;19915;-82
2023/01/30 09:48:35;;;;;;;;;;;7.90;99.90;;;;;;5099860;28;19955;-83
2023/01/30 09:51:19;;;;;;;;;;;8.00;99.90;;;;;;5082261;28;20388;-82
2023/01/30 09:54:00;;;;;;;;;;;8.00;99.90;;;;;;5104738;28;20014;-80
2023/01/30 09:56:26;;;;;;;;;;;8.10;99.90;;;;;;5105283;28;19908;-83
2023/01/30 09:59:00;;;;;;;;;;;8.10;99.90;;;;;;5105207;28;19915;-84
2023/01/30 10:01:25;;;;;;;;;;;8.20;99.90;;;;;;5106518;28;19914;-81
2023/01/30 10:04:00;;;;;;;;;;;8.20;99.90;;;;;;5087985;28;20389;-83
2023/01/30 10:06:25;;;;;;;;;;;8.30;99.90;;;;;;5086950;28;19908;-83
2023/01/30 10:09:03;;;;;;;;;;;8.30;99.90;;;;;;5104859;28;19930;-80
2023/01/30 10:11:37;;;;;;;;;;;8.30;99.90;;;;;;5085963;28;19912;-83
2023/01/30 10:14:22;;;;;;;;;;;8.30;99.90;;;;;;5103229;28;19912;-83
2023/01/30 10:17:00;;;;;;;;;;;8.40;99.90;;;;;;5086539;28;20322;-83
2023/01/30 10:19:31;;;;;;;;;;;8.50;99.90;;;;;;5105501;28;20364;-80
2023/01/30 10:22:03;;;;;;;;;;;8.40;99.90;;;;;;5086441;28;19915;-79
2023/01/30 10:24:31;;;;;;;;;;;8.40;99.90;;;;;;5105377;28;19909;-81
2023/01/30 10:26:57;;;;;;;;;;;8.50;99.90;;;;;;5085668;28;19908;-82
2023/01/30 10:29:25;;;;;;;;;;;8.50;99.90;;;;;;5105435;28;19954;-79
2023/01/30 10:32:03;;;;;;;;;;;8.40;99.90;;;;;;5085782;28;19912;-82
2023/01/30 10:34:37;;;;;;;;;;;8.30;99.90;;;;;;5085716;28;19912;-79
2023/01/30 10:37:09;;;;;;;;;;;8.30;99.90;;;;;;5085539;28;19954;-80
2023/01/30 10:39:49;;;;;;;;;;;8.30;99.90;;;;;;5104469;28;19941;-82
2023/01/30 10:42:21;;;;;;;;;;;8.30;99.90;;;;;;5086741;28;19908;-82
2023/01/30 10:44:47;;;;;;;;;;;8.20;99.90;;;;;;5088523;28;19912;-81
2023/01/30 10:47:18;;;;;;;;;;;8.20;99.90;;;;;;5090800;28;19908;-80
2023/01/30 10:49:48;;;;;;;;;;;8.20;99.90;;;;;;5089269;28;19912;-82
2023/01/30 10:52:13;;;;;;;;;;;8.20;99.90;;;;;;5105598;28;19983;-85
2023/01/30 10:54:53;;;;;;;;;;;8.30;99.90;;;;;;5103369;28;19935;-81
2023/01/30 10:57:35;;;;;;;;;;;8.40;99.90;;;;;;5085517;28;20347;-83
2023/01/30 11:00:04;;;;;;;;;;;8.50;99.90;;;;;;5088063;28;19911;-82
2023/01/30 11:02:45;;;;;;;;;;;8.40;99.90;;;;;;5104045;28;19908;-83
2023/01/30 11:05:13;;;;;;;;;;;8.40;99.90;;;;;;5086963;28;20433;-83
2023/01/30 11:07:40;;;;;;;;;;;8.40;99.90;;;;;;5106598;28;19909;-79
2023/01/30 11:10:13;;;;;;;;;;;8.30;99.90;;;;;;5104944;28;19912;-79
2023/01/30 11:12:39;;;;;;;;;;;8.30;99.90;;;;;;5105401;28;19930;-79
2023/01/30 11:15:04;;;;;;;;;;;8.40;99.90;;;;;;5105949;28;19908;-83
2023/01/30 11:17:38;;;;;;;;;;;8.40;99.90;;;;;;5108549;28;19908;-81
2023/01/30 11:20:13;;;;;;;;;;;8.40;99.90;;;;;;5105735;28;19918;-81
2023/01/30 11:22:44;;;;;;;;;;;8.30;99.90;;;;;;5106365;28;19947;-82
2023/01/30 11:25:14;;;;;;;;;;;8.30;99.90;;;;;;5108001;28;19923;-79
2023/01/30 11:27:40;;;;;;;;;;;8.20;99.90;;;;;;5087761;28;19912;-84
2023/01/30 11:30:14;;;;;;;;;;;8.30;99.90;;;;;;5094327;28;19916;-82
2023/01/30 11:32:40;;;;;;;;;;;8.20;99.90;;;;;;5131411;28;19930;-82
2023/01/30 11:35:06;;;;;;;;;;;8.20;99.90;;;;;;5130626;28;19958;-82
2023/01/30 11:37:33;;;;;;;;;;;8.20;99.90;;;;;;5129837;28;19912;-84
2023/01/30 11:40:06;;;;;;;;;;;8.20;99.90;;;;;;5109845;28;19979;-84
2023/01/30 11:42:31;;;;;;;;;;;8.10;99.90;;;;;;5126194;28;20257;-84
2023/01/30 11:44:58;;;;;;;;;;;8.10;99.90;;;;;;5125094;28;19908;-84
2023/01/30 11:47:25;;;;;;;;;;;8.10;99.90;;;;;;5106401;28;19908;-83
2023/01/30 11:49:53;;;;;;;;;;;8.10;99.90;;;;;;5122981;28;19916;-83
2023/01/30 11:52:23;;;;;;;;;;;8.10;99.90;;;;;;5124451;28;19916;-83
2023/01/30 11:54:49;;;;;;;;;;;8.10;99.90;;;;;;5109936;28;19999;-81
2023/01/30 11:57:16;;;;;;;;;;;8.20;99.90;;;;;;5105147;28;19912;-84
2023/01/30 11:59:44;;;;;;;;;;;8.20;99.90;;;;;;5104534;28;19942;-83
2023/01/30 12:02:22;;;;;;;;;;;8.20;99.90;;;;;;5105351;28;19907;-82
2023/01/30 12:04:52;;;;;;;;;;;8.20;99.90;;;;;;5105074;28;19987;-85
2023/01/30 12:07:25;;;;;;;;;;;8.30;99.90;;;;;;5104801;28;20003;-83
2023/01/30 12:09:52;;;;;;;;;;;8.30;99.90;;;;;;5106111;28;20022;-81
2023/01/30 12:12:36;;;;;;;;;;;8.30;99.90;;;;;;5122530;28;19975;-83
2023/01/30 12:15:17;;;;;;;;;;;8.30;99.90;;;;;;5103766;28;20270;-82
2023/01/30 12:17:49;;;;;;;;;;;8.30;99.90;;;;;;5105491;28;19907;-84
2023/01/30 12:20:18;;;;;;;;;;;8.30;99.90;;;;;;5124039;28;19908;-82
2023/01/30 12:23:03;;;;;;;;;;;8.40;99.90;;;;;;5107391;28;19915;-80
2023/01/30 12:25:35;;;;;;;;;;;8.30;99.90;;;;;;5074301;28;19908;-81
2023/01/30 12:28:02;;;;;;;;;;;8.30;99.90;;;;;;5127666;28;19923;-82
2023/01/30 12:30:27;;;;;;;;;;;8.30;99.90;;;;;;5111748;28;20371;-82
2023/01/30 12:32:55;;;;;;;;;;;8.20;99.90;;;;;;5129044;28;19915;-83
2023/01/30 12:35:38;;;;;;;;;;;8.20;99.90;;;;;;5113083;28;19938;-79
2023/01/30 12:38:27;;;;;;;;;;;8.20;99.90;;;;;;5113888;28;20499;-79
2023/01/30 12:40:52;;;;;;;;;;;8.10;99.90;;;;;;5098912;28;19907;-82
2023/01/30 12:43:25;;;;;;;;;;;8.20;99.90;;;;;;5110136;28;19957;-82
2023/01/30 12:46:10;;;;;;;;;;;8.10;99.90;;;;;;5114883;28;20000;-80
2023/01/30 12:48:55;;;;;;;;;;;8.10;99.90;;;;;;5112398;28;19908;-79
2023/01/30 12:51:48;;;;;;;;;;;8.10;99.90;;;;;;5112606;28;19920;-80
2023/01/30 12:54:22;;;;;;;;;;;8.10;99.90;;;;;;5126405;28;19912;-80
2023/01/30 12:57:06;;;;;;;;;;;8.10;99.90;;;;;;5109626;28;19907;-77
2023/01/30 12:59:37;;;;;;;;;;;8.10;99.90;;;;;;5113485;28;19972;-83
2023/01/30 13:02:03;;;;;;;;;;;8.10;99.90;;;;;;5108801;28;19939;-81
2023/01/30 13:04:36;;;;;;;;;;;8.20;99.90;;;;;;5112348;28;19915;-81
2023/01/30 13:07:25;;;;;;;;;;;8.10;99.90;;;;;;5110259;28;20425;-79
2023/01/30 13:10:03;;;;;;;;;;;8.10;99.90;;;;;;5114432;28;19916;-79
2023/01/30 13:12:28;;;;;;;;;;;8.20;99.90;;;;;;5132670;28;19927;-81
2023/01/30 13:15:03;;;;;;;;;;;8.40;99.90;;;;;;5131806;28;20178;-80
2023/01/30 13:17:34;;;;;;;;;;;8.60;99.90;;;;;;5113123;28;20265;-82
2023/01/30 13:20:11;;;;;;;;;;;8.60;99.90;;;;;;5128785;28;19908;-82
2023/01/30 13:22:36;;;;;;;;;;;8.50;99.90;;;;;;5127384;28;19907;-83
2023/01/30 13:25:21;;;;;;;;;;;8.50;99.90;;;;;;5112054;28;19899;-84
2023/01/30 13:27:55;;;;;;;;;;;8.50;99.90;;;;;;5129858;28;19918;-80
2023/01/30 13:30:24;;;;;;;;;;;8.60;99.90;;;;;;5113224;28;19919;-83
2023/01/30 13:32:54;;;;;;;;;;;8.60;99.90;;;;;;5133866;28;19896;-78
2023/01/30 13:35:29;;;;;;;;;;;8.60;99.90;;;;;;5109238;28;19912;-80
2023/01/30 13:37:56;;;;;;;;;;;8.50;99.90;;;;;;5130069;28;19908;-82
2023/01/30 13:40:33;;;;;;;;;;;8.40;99.90;;;;;;5113729;28;19908;-82
2023/01/30 13:43:06;;;;;;;;;;;8.50;99.90;;;;;;5112985;28;19908;-78
2023/01/30 13:45:33;;;;;;;;;;;8.50;99.90;;;;;;5108491;28;19917;-84
2023/01/30 13:48:07;;;;;;;;;;;8.40;99.90;;;;;;5125496;28;19908;-83
2023/01/30 13:50:40;;;;;;;;;;;8.40;99.90;;;;;;5127011;28;19900;-82
2023/01/30 13:53:08;;;;;;;;;;;8.30;99.90;;;;;;5125910;28;19916;-82
2023/01/30 13:55:43;;;;;;;;;;;8.30;99.90;;;;;;5107412;28;19914;-81
2023/01/30 13:58:29;;;;;;;;;;;8.30;99.90;;;;;;5107845;28;19908;-82
2023/01/30 14:00:55;;;;;;;;;;;8.30;99.90;;;;;;5110574;28;19975;-84
2023/01/30 14:03:27;;;;;;;;;;;8.30;99.90;;;;;;5112121;28;19900;-79
2023/01/30 14:05:53;;;;;;;;;;;8.30;99.90;;;;;;5109334;28;19919;-81
2023/01/30 14:08:25;;;;;;;;;;;8.30;99.90;;;;;;5110607;28;19907;-78
2023/01/30 14:10:50;;;;;;;;;;;8.40;99.90;;;;;;5112688;28;19912;-79
2023/01/30 14:13:16;;;;;;;;;;;8.40;99.90;;;;;;5110664;28;19972;-81
2023/01/30 14:15:52;;;;;;;;;;;8.50;99.90;;;;;;5127065;28;19964;-85
2023/01/30 14:18:23;;;;;;;;;;;8.50;99.90;;;;;;5126314;28;20409;-83
2023/01/30 14:20:50;;;;;;;;;;;8.40;99.90;;;;;;5125860;28;19974;-86
2023/01/30 14:23:25;;;;;;;;;;;8.40;99.90;;;;;;5108896;28;20331;-82
2023/01/30 14:25:51;;;;;;;;;;;8.40;99.90;;;;;;5089310;28;20331;-81
2023/01/30 14:28:17;;;;;;;;;;;8.30;99.90;;;;;;5123087;28;19912;-82
2023/01/30 14:30:42;;;;;;;;;;;8.40;99.90;;;;;;5105632;28;19963;-81
2023/01/30 14:33:20;;;;;;;;;;;8.60;99.90;;;;;;5111254;28;19908;-81
2023/01/30 14:36:01;;;;;;;;;;;8.60;99.90;;;;;;5108621;28;19916;-80
2023/01/30 14:38:28;;;;;;;;;;;8.50;99.90;;;;;;5102364;28;19975;-82
2023/01/30 14:40:56;;;;;;;;;;;8.60;99.90;;;;;;5126707;28;19907;-82
2023/01/30 14:43:25;;;;;;;;;;;8.60;99.90;;;;;;5127637;28;20583;-81
2023/01/30 14:45:55;;;;;;;;;;;8.50;99.90;;;;;;5095538;28;19927;-80
2023/01/30 14:48:31;;;;;;;;;;;8.50;99.90;;;;;;5106110;28;19959;-81